createdAt,value
2018-09-15T00:00:00.769Z,1012.82
2018-09-15T00:01:00.693Z,1012.79
2018-09-15T00:02:00.702Z,1012.83
2018-09-15T00:03:00.658Z,1012.80
2018-09-15T00:04:00.620Z,1012.81
2018-09-15T00:05:00.617Z,1012.78
2018-09-15T00:06:00.604Z,1012.76
2018-09-15T00:07:00.591Z,1012.74
2018-09-15T00:08:00.573Z,1012.77
2018-09-15T00:09:00.553Z,1012.74
2018-09-15T00:10:00.548Z,1012.74
2018-09-15T00:11:00.528Z,1012.71
2018-09-15T00:12:00.491Z,1012.77
2018-09-15T00:13:00.506Z,1012.74
2018-09-15T00:14:00.467Z,1012.75
2018-09-15T00:15:00.431Z,1012.74
2018-09-15T00:16:00.472Z,1012.76
2018-09-15T00:17:00.407Z,1012.80
2018-09-15T00:18:00.405Z,1012.80
2018-09-15T00:19:00.368Z,1012.79
2018-09-15T00:20:00.366Z,1012.79
2018-09-15T00:21:00.340Z,1012.78
2018-09-15T00:22:00.330Z,1012.76
2018-09-15T00:23:00.390Z,1012.78
2018-09-15T00:24:00.285Z,1012.78
2018-09-15T00:25:00.258Z,1012.79
2018-09-15T00:26:00.262Z,1012.77
2018-09-15T00:27:00.232Z,1012.80
2018-09-15T00:28:00.212Z,1012.79
2018-09-15T00:29:00.227Z,1012.82
2018-09-15T00:30:00.175Z,1012.84
2018-09-15T00:31:00.181Z,1012.83
2018-09-15T00:32:00.147Z,1012.90
2018-09-15T00:33:00.137Z,1012.87
2018-09-15T00:34:00.161Z,1012.84
2018-09-15T00:35:00.108Z,1012.83
2018-09-15T00:36:00.063Z,1012.81
2018-09-15T00:37:00.047Z,1012.81
2018-09-15T00:38:00.041Z,1012.87
2018-09-15T00:39:00.091Z,1012.83
2018-09-15T00:40:00.079Z,1012.85
2018-09-15T00:41:00.036Z,1012.85
2018-09-15T00:42:00.020Z,1012.83
2018-09-15T00:43:00.021Z,1012.86
2018-09-15T00:43:59.990Z,1012.85
2018-09-15T00:45:00.096Z,1012.84
2018-09-15T00:45:59.888Z,1012.85
2018-09-15T00:46:59.877Z,1012.83
2018-09-15T00:47:59.842Z,1012.88
2018-09-15T00:48:59.837Z,1012.85
2018-09-15T00:49:59.818Z,1012.85
2018-09-15T00:50:59.817Z,1012.83
2018-09-15T00:51:59.799Z,1012.83
2018-09-15T00:52:59.766Z,1012.88
2018-09-15T00:53:59.787Z,1012.83
2018-09-15T00:54:59.740Z,1012.86
2018-09-15T00:55:59.746Z,1012.87
2018-09-15T00:56:59.692Z,1012.87
2018-09-15T00:57:59.693Z,1012.86
2018-09-15T00:58:59.663Z,1012.86
2018-09-15T00:59:59.652Z,1012.87
2018-09-15T01:00:59.623Z,1012.89
2018-09-15T01:01:59.607Z,1012.87
2018-09-15T01:02:59.580Z,1012.89
2018-09-15T01:03:59.578Z,1012.89
2018-09-15T01:04:59.547Z,1012.94
2018-09-15T01:05:59.556Z,1012.94
2018-09-15T01:06:59.575Z,1012.94
2018-09-15T01:07:59.504Z,1012.92
2018-09-15T01:08:59.494Z,1012.88
2018-09-15T01:09:59.482Z,1012.94
2018-09-15T01:10:59.445Z,1012.93
2018-09-15T01:11:59.423Z,1012.91
2018-09-15T01:12:59.449Z,1012.93
2018-09-15T01:13:59.468Z,1012.92
2018-09-15T01:14:59.424Z,1012.94
2018-09-15T01:15:59.370Z,1012.92
2018-09-15T01:16:59.339Z,1012.95
2018-09-15T01:17:59.322Z,1012.88
2018-09-15T01:18:59.314Z,1012.86
2018-09-15T01:19:59.303Z,1012.90
2018-09-15T01:20:59.298Z,1012.92
2018-09-15T01:21:59.276Z,1012.93
2018-09-15T01:22:59.257Z,1012.93
2018-09-15T01:23:59.225Z,1012.87
2018-09-15T01:24:59.290Z,1012.93
2018-09-15T01:25:59.290Z,1012.91
2018-09-15T01:26:59.228Z,1012.91
2018-09-15T01:27:59.184Z,1012.90
2018-09-15T01:28:59.203Z,1012.90
2018-09-15T01:29:59.139Z,1012.90
2018-09-15T01:30:59.100Z,1012.89
2018-09-15T01:31:59.085Z,1012.91
2018-09-15T01:32:59.091Z,1012.88
2018-09-15T01:33:59.053Z,1012.91
2018-09-15T01:34:59.029Z,1012.92
2018-09-15T01:35:59.021Z,1012.88
2018-09-15T01:36:58.999Z,1012.91
2018-09-15T01:37:58.986Z,1012.90
2018-09-15T01:38:58.955Z,1012.92
2018-09-15T01:39:58.956Z,1012.91
2018-09-15T01:40:58.931Z,1012.96
2018-09-15T01:41:58.936Z,1012.97
2018-09-15T01:42:58.882Z,1012.98
2018-09-15T01:43:58.850Z,1013.00
2018-09-15T01:44:58.887Z,1013.03
2018-09-15T01:45:58.828Z,1013.02
2018-09-15T01:46:58.811Z,1013.05
2018-09-15T01:47:58.800Z,1013.03
2018-09-15T01:48:58.791Z,1013.09
2018-09-15T01:49:58.757Z,1013.12
2018-09-15T01:50:58.766Z,1013.10
2018-09-15T01:51:58.732Z,1013.12
2018-09-15T01:52:58.714Z,1013.14
2018-09-15T01:53:58.688Z,1013.15
2018-09-15T01:54:58.667Z,1013.19
2018-09-15T01:55:58.648Z,1013.23
2018-09-15T01:56:58.639Z,1013.24
2018-09-15T01:57:58.648Z,1013.26
2018-09-15T01:58:58.600Z,1013.25
2018-09-15T01:59:58.591Z,1013.26
2018-09-15T02:00:58.573Z,1013.30
2018-09-15T02:01:58.559Z,1013.30
2018-09-15T02:02:58.539Z,1013.28
2018-09-15T02:03:58.505Z,1013.30
2018-09-15T02:04:58.517Z,1013.26
2018-09-15T02:05:58.487Z,1013.27
2018-09-15T02:06:58.479Z,1013.24
2018-09-15T02:07:58.486Z,1013.21
2018-09-15T02:08:58.487Z,1013.24
2018-09-15T02:09:58.461Z,1013.27
2018-09-15T02:10:58.441Z,1013.25
2018-09-15T02:11:58.431Z,1013.25
2018-09-15T02:12:58.411Z,1013.26
2018-09-15T02:13:58.324Z,1013.30
2018-09-15T02:14:58.307Z,1013.31
2018-09-15T02:15:58.286Z,1013.31
2018-09-15T02:16:58.310Z,1013.32
2018-09-15T02:17:58.259Z,1013.36
2018-09-15T02:18:58.257Z,1013.33
2018-09-15T02:19:58.233Z,1013.30
2018-09-15T02:20:58.192Z,1013.28
2018-09-15T02:21:58.190Z,1013.31
2018-09-15T02:22:58.219Z,1013.29
2018-09-15T02:23:58.151Z,1013.26
2018-09-15T02:24:58.135Z,1013.28
2018-09-15T02:25:58.133Z,1013.27
2018-09-15T02:26:58.129Z,1013.28
2018-09-15T02:27:58.125Z,1013.25
2018-09-15T02:28:58.149Z,1013.26
2018-09-15T02:29:58.056Z,1013.26
2018-09-15T02:30:58.029Z,1013.25
2018-09-15T02:31:58.014Z,1013.27
2018-09-15T02:32:57.976Z,1013.26
2018-09-15T02:33:58.003Z,1013.27
2018-09-15T02:34:57.952Z,1013.28
2018-09-15T02:35:57.952Z,1013.26
2018-09-15T02:36:57.915Z,1013.26
2018-09-15T02:37:57.890Z,1013.28
2018-09-15T02:38:57.890Z,1013.27
2018-09-15T02:39:57.875Z,1013.28
2018-09-15T02:40:57.856Z,1013.28
2018-09-15T02:41:57.834Z,1013.27
2018-09-15T02:42:57.818Z,1013.32
2018-09-15T02:43:57.823Z,1013.29
2018-09-15T02:44:57.801Z,1013.28
2018-09-15T02:45:57.767Z,1013.23
2018-09-15T02:46:57.748Z,1013.22
2018-09-15T02:47:57.746Z,1013.24
2018-09-15T02:48:57.712Z,1013.21
2018-09-15T02:49:57.673Z,1013.21
2018-09-15T02:50:57.660Z,1013.22
2018-09-15T02:51:57.665Z,1013.21
2018-09-15T02:52:57.667Z,1013.25
2018-09-15T02:53:57.673Z,1013.21
2018-09-15T02:54:57.669Z,1013.26
2018-09-15T02:55:57.631Z,1013.24
2018-09-15T02:56:57.540Z,1013.30
2018-09-15T02:57:57.528Z,1013.29
2018-09-15T02:58:57.513Z,1013.27
2018-09-15T02:59:57.533Z,1013.32
2018-09-15T03:00:57.490Z,1013.29
2018-09-15T03:01:57.465Z,1013.30
2018-09-15T03:02:57.474Z,1013.31
2018-09-15T03:03:57.416Z,1013.35
2018-09-15T03:04:57.441Z,1013.36
2018-09-15T03:05:57.404Z,1013.36
2018-09-15T03:06:57.401Z,1013.38
2018-09-15T03:07:57.373Z,1013.36
2018-09-15T03:08:57.337Z,1013.40
2018-09-15T03:09:57.328Z,1013.39
2018-09-15T03:10:57.344Z,1013.37
2018-09-15T03:11:57.304Z,1013.35
2018-09-15T03:12:57.275Z,1013.39
2018-09-15T03:13:57.268Z,1013.40
2018-09-15T03:14:57.289Z,1013.43
2018-09-15T03:15:57.241Z,1013.44
2018-09-15T03:16:57.199Z,1013.41
2018-09-15T03:17:57.173Z,1013.42
2018-09-15T03:18:57.182Z,1013.49
2018-09-15T03:19:57.133Z,1013.46
2018-09-15T03:20:57.228Z,1013.49
2018-09-15T03:21:57.115Z,1013.45
2018-09-15T03:22:57.096Z,1013.42
2018-09-15T03:23:57.099Z,1013.47
2018-09-15T03:24:57.061Z,1013.44
2018-09-15T03:25:57.029Z,1013.44
2018-09-15T03:26:57.024Z,1013.45
2018-09-15T03:27:56.996Z,1013.40
2018-09-15T03:28:57.013Z,1013.39
2018-09-15T03:29:56.963Z,1013.40
2018-09-15T03:30:56.997Z,1013.39
2018-09-15T03:31:56.974Z,1013.40
2018-09-15T03:32:56.912Z,1013.34
2018-09-15T03:33:56.897Z,1013.40
2018-09-15T03:34:56.896Z,1013.42
2018-09-15T03:35:56.887Z,1013.43
2018-09-15T03:36:56.920Z,1013.43
2018-09-15T03:37:56.906Z,1013.43
2018-09-15T03:38:56.879Z,1013.45
2018-09-15T03:39:56.831Z,1013.42
2018-09-15T03:40:56.757Z,1013.40
2018-09-15T03:41:56.777Z,1013.40
2018-09-15T03:42:56.744Z,1013.38
2018-09-15T03:43:56.706Z,1013.39
2018-09-15T03:44:56.682Z,1013.40
2018-09-15T03:45:56.682Z,1013.38
2018-09-15T03:46:56.671Z,1013.37
2018-09-15T03:47:56.662Z,1013.37
2018-09-15T03:48:56.617Z,1013.35
2018-09-15T03:49:56.594Z,1013.33
2018-09-15T03:50:56.600Z,1013.35
2018-09-15T03:51:56.566Z,1013.36
2018-09-15T03:52:56.597Z,1013.35
2018-09-15T03:53:56.526Z,1013.36
2018-09-15T03:54:56.512Z,1013.36
2018-09-15T03:55:56.492Z,1013.38
2018-09-15T03:56:56.487Z,1013.38
2018-09-15T03:57:56.460Z,1013.38
2018-09-15T03:58:56.470Z,1013.41
2018-09-15T03:59:56.521Z,1013.43
2018-09-15T04:00:56.394Z,1013.43
2018-09-15T04:01:56.411Z,1013.46
2018-09-15T04:02:56.385Z,1013.47
2018-09-15T04:03:56.367Z,1013.51
2018-09-15T04:04:56.323Z,1013.46
2018-09-15T04:05:56.310Z,1013.48
2018-09-15T04:06:56.299Z,1013.48
2018-09-15T04:07:56.298Z,1013.46
2018-09-15T04:08:56.257Z,1013.48
2018-09-15T04:09:56.258Z,1013.50
2018-09-15T04:10:57.029Z,1013.47
2018-09-15T04:11:56.178Z,1013.46
2018-09-15T04:12:56.230Z,1013.46
2018-09-15T04:13:56.174Z,1013.48
2018-09-15T04:14:56.156Z,1013.52
2018-09-15T04:15:56.128Z,1013.50
2018-09-15T04:16:56.095Z,1013.51
2018-09-15T04:17:56.164Z,1013.52
2018-09-15T04:18:56.115Z,1013.49
2018-09-15T04:19:56.132Z,1013.52
2018-09-15T04:20:56.068Z,1013.56
2018-09-15T04:21:56.046Z,1013.54
2018-09-15T04:22:55.972Z,1013.52
2018-09-15T04:23:55.969Z,1013.57
2018-09-15T11:24:33.576Z,1015.50
2018-09-15T11:25:33.537Z,1015.53
2018-09-15T11:26:33.529Z,1015.59
2018-09-15T11:27:33.496Z,1015.57
2018-09-15T11:28:33.636Z,1015.56
2018-09-15T11:29:33.482Z,1015.54
2018-09-15T11:30:33.458Z,1015.55
2018-09-15T11:31:33.576Z,1015.55
2018-09-15T11:32:33.563Z,1015.65
2018-09-15T11:33:33.413Z,1015.60
2018-09-15T11:34:33.506Z,1015.63
2018-09-15T11:35:33.531Z,1015.63
2018-09-15T11:36:33.421Z,1015.64
2018-09-15T11:37:33.371Z,1015.64
2018-09-15T11:38:33.336Z,1015.65
2018-09-15T11:39:33.337Z,1015.58
2018-09-15T11:40:33.328Z,1015.73
2018-09-15T11:41:33.299Z,1015.73
2018-09-15T11:42:33.286Z,1015.69
2018-09-15T11:43:33.296Z,1015.74
2018-09-15T11:44:33.259Z,1015.71
2018-09-15T11:45:33.264Z,1015.69
2018-09-15T11:46:33.264Z,1015.75
2018-09-15T11:47:33.720Z,1015.64
2018-09-15T11:48:33.315Z,1015.68
2018-09-15T11:49:33.258Z,1015.71
2018-09-15T11:50:33.231Z,1015.71
2018-09-15T11:51:33.298Z,1015.69
2018-09-15T11:52:34.208Z,1015.64
2018-09-15T11:53:43.299Z,1015.63
2018-09-15T11:54:33.129Z,1015.60
2018-09-15T11:55:33.109Z,1015.66
2018-09-15T11:56:33.092Z,1015.59
2018-09-15T11:57:33.131Z,1015.55
2018-09-15T11:58:33.104Z,1015.50
2018-09-15T11:59:33.068Z,1015.60
2018-09-15T12:00:33.090Z,1015.57
2018-09-15T12:01:33.035Z,1015.56
2018-09-15T12:02:33.350Z,1015.68
2018-09-15T12:03:33.041Z,1015.58
2018-09-15T12:04:33.052Z,1015.51
2018-09-15T12:05:32.996Z,1015.46
2018-09-15T12:06:32.984Z,1015.44
2018-09-15T12:07:32.977Z,1015.41
2018-09-15T12:08:32.981Z,1015.45
2018-09-15T12:09:32.939Z,1015.38
2018-09-15T12:10:33.287Z,1015.41
2018-09-15T12:11:33.006Z,1015.44
2018-09-15T12:12:33.030Z,1015.43
2018-09-15T12:13:32.928Z,1015.38
2018-09-15T12:14:33.073Z,1015.48
2018-09-15T12:15:32.885Z,1015.46
2018-09-15T12:16:32.883Z,1015.46
2018-09-15T12:17:32.855Z,1015.49
2018-09-15T12:18:33.018Z,1015.49
2018-09-15T12:19:32.998Z,1015.47
2018-09-15T12:20:32.820Z,1015.42
2018-09-15T12:21:32.847Z,1015.49
2018-09-15T12:22:32.975Z,1015.52
2018-09-15T12:23:32.828Z,1015.55
2018-09-15T12:24:32.859Z,1015.54
2018-09-15T12:25:32.751Z,1015.56
2018-09-15T12:26:32.946Z,1015.56
2018-09-15T12:27:32.748Z,1015.52
2018-09-15T12:28:32.710Z,1015.51
2018-09-15T12:29:32.728Z,1015.51
2018-09-15T12:30:32.834Z,1015.62
2018-09-15T12:31:32.684Z,1015.66
2018-09-15T12:32:32.661Z,1015.63
2018-09-15T12:33:32.745Z,1015.68
2018-09-15T12:34:32.654Z,1015.68
2018-09-15T12:35:32.626Z,1015.56
2018-09-15T12:36:32.591Z,1015.61
2018-09-15T12:37:32.593Z,1015.54
2018-09-15T12:38:32.570Z,1015.53
2018-09-15T12:39:32.657Z,1015.57
2018-09-15T12:40:32.581Z,1015.53
2018-09-15T12:41:32.549Z,1015.56
2018-09-15T12:42:32.569Z,1015.67
2018-09-15T12:43:32.574Z,1015.69
2018-09-15T12:44:32.567Z,1015.72
2018-09-15T12:45:32.592Z,1015.61
2018-09-15T12:46:32.564Z,1015.55
2018-09-15T12:47:32.585Z,1015.55
2018-09-15T12:48:32.547Z,1015.53
2018-09-15T12:49:32.525Z,1015.59
2018-09-15T12:50:32.522Z,1015.59
2018-09-15T12:51:32.672Z,1015.66
2018-09-15T12:52:32.441Z,1015.69
2018-09-15T12:53:32.391Z,1015.60
2018-09-15T12:54:32.402Z,1015.60
2018-09-15T12:55:32.396Z,1015.61
2018-09-15T12:56:32.407Z,1015.62
2018-09-15T12:57:32.604Z,1015.59
2018-09-15T12:58:32.367Z,1015.68
2018-09-15T12:59:42.823Z,1015.63
2018-09-15T13:00:32.310Z,1015.54
2018-09-15T13:01:32.325Z,1015.69
2018-09-15T13:02:32.339Z,1015.69
2018-09-15T13:03:32.396Z,1015.54
2018-09-15T13:04:32.271Z,1015.66
2018-09-15T13:05:32.267Z,1015.67
2018-09-15T13:06:32.330Z,1015.69
2018-09-15T13:07:32.234Z,1015.64
2018-09-15T13:08:32.250Z,1015.66
2018-09-15T13:09:32.216Z,1015.53
2018-09-15T13:10:32.204Z,1015.65
2018-09-15T13:11:32.200Z,1015.61
2018-09-15T13:12:32.234Z,1015.66
2018-09-15T13:13:32.243Z,1015.65
2018-09-15T13:14:32.188Z,1015.69
2018-09-15T13:15:32.246Z,1015.55
2018-09-15T13:16:32.150Z,1015.58
2018-09-15T13:17:32.158Z,1015.67
2018-09-15T13:18:32.244Z,1015.54
2018-09-15T13:19:32.134Z,1015.47
2018-09-15T13:20:43.327Z,1015.49
2018-09-15T13:21:32.091Z,1015.44
2018-09-15T13:22:32.094Z,1015.43
2018-09-15T13:23:32.141Z,1015.44
2018-09-15T13:24:32.065Z,1015.43
2018-09-15T13:25:32.063Z,1015.43
2018-09-15T13:26:32.045Z,1015.38
2018-09-15T13:27:32.221Z,1015.38
2018-09-15T13:28:32.036Z,1015.38
2018-09-15T13:29:32.084Z,1015.36
2018-09-15T13:30:32.103Z,1015.37
2018-09-15T13:31:32.025Z,1015.36
2018-09-15T13:32:32.060Z,1015.38
2018-09-15T13:33:32.002Z,1015.40
2018-09-15T13:34:31.981Z,1015.40
2018-09-15T13:35:31.951Z,1015.34
2018-09-15T13:36:31.948Z,1015.37
2018-09-15T13:37:31.931Z,1015.35
2018-09-15T13:38:31.946Z,1015.36
2018-09-15T13:39:31.924Z,1015.41
2018-09-15T13:40:31.900Z,1015.41
2018-09-15T13:41:31.910Z,1015.38
2018-09-15T13:42:31.865Z,1015.30
2018-09-15T13:43:31.884Z,1015.35
2018-09-15T13:44:31.920Z,1015.34
2018-09-15T13:45:31.921Z,1015.34
2018-09-15T13:46:31.894Z,1015.33
2018-09-15T13:47:31.879Z,1015.32
2018-09-15T13:48:31.855Z,1015.37
2018-09-15T13:49:31.854Z,1015.32
2018-09-15T13:50:31.827Z,1015.34
2018-09-15T13:51:31.834Z,1015.31
2018-09-15T13:52:31.755Z,1015.35
2018-09-15T13:53:31.738Z,1015.34
2018-09-15T13:54:31.767Z,1015.32
2018-09-15T13:55:31.712Z,1015.34
2018-09-15T13:56:31.690Z,1015.32
2018-09-15T13:57:31.706Z,1015.28
2018-09-15T13:58:31.668Z,1015.30
2018-09-15T13:59:31.679Z,1015.32
2018-09-15T14:00:31.654Z,1015.31
2018-09-15T14:01:31.642Z,1015.30
2018-09-15T14:02:31.633Z,1015.36
2018-09-15T14:03:31.607Z,1015.33
2018-09-15T14:04:31.621Z,1015.30
2018-09-15T14:05:31.606Z,1015.33
2018-09-15T14:06:31.576Z,1015.30
2018-09-15T14:07:31.565Z,1015.26
2018-09-15T14:08:31.544Z,1015.23
2018-09-15T14:09:31.539Z,1015.26
2018-09-15T14:10:31.567Z,1015.27
2018-09-15T14:11:31.520Z,1015.27
2018-09-15T14:12:31.506Z,1015.29
2018-09-15T14:13:31.484Z,1015.30
2018-09-15T14:14:31.470Z,1015.33
2018-09-15T14:15:31.473Z,1015.39
2018-09-15T14:16:31.453Z,1015.47
2018-09-15T14:17:31.434Z,1015.44
2018-09-15T14:18:31.417Z,1015.42
2018-09-15T14:19:31.401Z,1015.32
2018-09-15T14:20:31.438Z,1015.36
2018-09-15T14:21:31.374Z,1015.40
2018-09-15T14:22:31.373Z,1015.35
2018-09-15T14:23:31.441Z,1015.33
2018-09-15T14:24:31.432Z,1015.35
2018-09-15T14:25:31.400Z,1015.41
2018-09-15T14:26:31.327Z,1015.43
2018-09-15T14:27:31.337Z,1015.38
2018-09-15T14:28:31.372Z,1015.35
2018-09-15T14:29:31.275Z,1015.41
2018-09-15T14:30:31.270Z,1015.40
2018-09-15T14:31:31.263Z,1015.41
2018-09-15T14:32:31.244Z,1015.39
2018-09-15T14:33:31.218Z,1015.42
2018-09-15T14:34:31.216Z,1015.45
2018-09-15T14:35:31.203Z,1015.45
2018-09-15T14:36:31.225Z,1015.44
2018-09-15T14:37:31.182Z,1015.43
2018-09-15T14:38:31.164Z,1015.44
2018-09-15T14:39:31.157Z,1015.44
2018-09-15T14:40:31.139Z,1015.49
2018-09-15T14:41:31.159Z,1015.51
2018-09-15T14:42:31.181Z,1015.50
2018-09-15T14:43:31.146Z,1015.51
2018-09-15T14:44:31.153Z,1015.50
2018-09-15T14:45:31.127Z,1015.50
2018-09-15T14:46:31.142Z,1015.47
2018-09-15T14:47:31.127Z,1015.53
2018-09-15T14:48:31.165Z,1015.51
2018-09-15T14:49:31.129Z,1015.51
2018-09-15T14:50:31.018Z,1015.54
2018-09-15T14:51:31.026Z,1015.60
2018-09-15T14:52:30.991Z,1015.55
2018-09-15T14:53:30.971Z,1015.51
2018-09-15T14:54:30.947Z,1015.56
2018-09-15T14:55:30.951Z,1015.52
2018-09-15T14:56:30.920Z,1015.52
2018-09-15T14:57:30.911Z,1015.53
2018-09-15T14:58:30.901Z,1015.53
2018-09-15T14:59:30.899Z,1015.49
2018-09-15T15:00:30.904Z,1015.51
2018-09-15T15:01:30.906Z,1015.52
2018-09-15T15:02:30.857Z,1015.46
2018-09-15T15:03:30.879Z,1015.45
2018-09-15T15:04:30.825Z,1015.49
2018-09-15T15:05:30.849Z,1015.49
2018-09-15T15:06:30.802Z,1015.49
2018-09-15T15:07:30.787Z,1015.50
2018-09-15T15:08:30.801Z,1015.47
2018-09-15T15:09:30.750Z,1015.48
2018-09-15T15:10:30.737Z,1015.47
2018-09-15T15:11:30.736Z,1015.43
2018-09-15T15:12:30.714Z,1015.39
2018-09-15T15:13:30.755Z,1015.38
2018-09-15T15:14:30.690Z,1015.42
2018-09-15T15:15:30.695Z,1015.42
2018-09-15T15:16:30.701Z,1015.41
2018-09-15T15:17:30.645Z,1015.44
2018-09-15T15:18:30.627Z,1015.44
2018-09-15T15:19:30.670Z,1015.39
2018-09-15T15:20:30.600Z,1015.37
2018-09-15T15:21:30.610Z,1015.42
2018-09-15T15:22:30.565Z,1015.41
2018-09-15T15:23:30.551Z,1015.38
2018-09-15T15:24:30.563Z,1015.36
2018-09-15T15:25:30.578Z,1015.36
2018-09-15T15:26:30.565Z,1015.41
2018-09-15T15:27:30.505Z,1015.40
2018-09-15T15:28:30.483Z,1015.39
2018-09-15T15:29:30.491Z,1015.42
2018-09-15T15:30:30.490Z,1015.37
2018-09-15T15:31:30.576Z,1015.37
2018-09-15T15:32:40.957Z,1015.36
2018-09-15T15:33:30.412Z,1015.37
2018-09-15T15:34:30.435Z,1015.37
2018-09-15T15:35:30.557Z,1015.34
2018-09-15T15:36:30.394Z,1015.36
2018-09-15T15:37:30.417Z,1015.32
2018-09-15T15:38:30.395Z,1015.36
2018-09-15T15:39:30.378Z,1015.34
2018-09-15T15:40:30.388Z,1015.33
2018-09-15T15:41:30.360Z,1015.33
2018-09-15T15:42:30.280Z,1015.30
2018-09-15T15:43:30.321Z,1015.35
2018-09-15T15:44:30.256Z,1015.31
2018-09-15T15:45:30.376Z,1015.29
2018-09-15T15:46:30.239Z,1015.33
2018-09-15T15:47:30.236Z,1015.32
2018-09-15T15:48:30.249Z,1015.31
2018-09-15T15:49:30.233Z,1015.34
2018-09-15T15:50:30.199Z,1015.39
2018-09-15T15:51:30.190Z,1015.40
2018-09-15T15:52:30.163Z,1015.41
2018-09-15T15:53:30.184Z,1015.37
2018-09-15T15:54:30.177Z,1015.39
2018-09-15T15:55:30.151Z,1015.40
2018-09-15T15:56:30.118Z,1015.37
2018-09-15T15:57:30.087Z,1015.41
2018-09-15T15:58:30.094Z,1015.43
2018-09-15T15:59:30.075Z,1015.43
2018-09-15T16:00:30.032Z,1015.44
2018-09-15T16:01:30.051Z,1015.42
2018-09-15T16:02:30.044Z,1015.42
2018-09-15T16:03:30.009Z,1015.42
2018-09-15T16:04:30.080Z,1015.43
2018-09-15T16:05:30.043Z,1015.43
2018-09-15T16:06:29.997Z,1015.39
2018-09-15T16:07:29.946Z,1015.40
2018-09-15T16:08:29.938Z,1015.38
2018-09-15T16:09:29.934Z,1015.43
2018-09-15T16:10:29.922Z,1015.44
2018-09-15T16:11:29.898Z,1015.43
2018-09-15T16:12:29.881Z,1015.42
2018-09-15T16:13:29.878Z,1015.41
2018-09-15T16:14:29.844Z,1015.41
2018-09-15T16:15:39.953Z,1015.45
2018-09-15T16:16:29.860Z,1015.40
2018-09-15T16:17:29.837Z,1015.40
2018-09-15T16:18:29.783Z,1015.41
2018-09-15T16:19:29.817Z,1015.40
2018-09-15T16:20:29.752Z,1015.37
2018-09-15T16:21:29.740Z,1015.39
2018-09-15T16:22:29.740Z,1015.37
2018-09-15T16:23:29.717Z,1015.36
2018-09-15T16:24:29.738Z,1015.34
2018-09-15T16:25:29.708Z,1015.34
2018-09-15T16:26:29.693Z,1015.36
2018-09-15T16:27:29.708Z,1015.37
2018-09-15T16:28:29.691Z,1015.36
2018-09-15T16:29:29.711Z,1015.36
2018-09-15T16:30:29.719Z,1015.39
2018-09-15T16:31:29.683Z,1015.41
2018-09-15T16:32:29.675Z,1015.40
2018-09-15T16:33:29.569Z,1015.41
2018-09-15T16:34:29.560Z,1015.37
2018-09-15T16:35:29.555Z,1015.40
2018-09-15T16:36:29.578Z,1015.40
2018-09-15T16:37:39.486Z,1015.42
2018-09-15T16:38:29.665Z,1015.38
2018-09-15T16:39:29.485Z,1015.35
2018-09-15T16:40:29.531Z,1015.33
2018-09-15T16:41:29.480Z,1015.34
2018-09-15T16:42:29.550Z,1015.33
2018-09-15T16:43:29.490Z,1015.31
2018-09-15T16:44:29.422Z,1015.34
2018-09-15T16:45:29.422Z,1015.37
2018-09-15T16:46:29.509Z,1015.34
2018-09-15T16:47:29.390Z,1015.34
2018-09-15T16:48:29.406Z,1015.33
2018-09-15T16:49:29.369Z,1015.35
2018-09-15T16:50:29.376Z,1015.33
2018-09-15T16:51:29.391Z,1015.36
2018-09-15T16:52:29.330Z,1015.35
2018-09-15T16:53:29.309Z,1015.33
2018-09-15T16:54:29.341Z,1015.35
2018-09-15T16:55:29.297Z,1015.34
2018-09-15T16:56:29.270Z,1015.36
2018-09-15T16:57:29.252Z,1015.36
2018-09-15T16:58:29.234Z,1015.40
2018-09-15T16:59:29.204Z,1015.39
2018-09-15T17:00:29.218Z,1015.40
2018-09-15T17:01:29.194Z,1015.40
2018-09-15T17:02:29.158Z,1015.40
2018-09-15T17:03:29.256Z,1015.34
2018-09-15T17:04:29.180Z,1015.35
2018-09-15T17:05:29.130Z,1015.39
2018-09-15T17:06:29.105Z,1015.35
2018-09-15T17:07:29.097Z,1015.37
2018-09-15T17:08:29.077Z,1015.37
2018-09-15T17:09:29.113Z,1015.42
2018-09-15T17:10:29.915Z,1015.42
2018-09-15T17:11:29.049Z,1015.41
2018-09-15T17:12:29.011Z,1015.39
2018-09-15T17:13:29.013Z,1015.38
2018-09-15T17:14:29.001Z,1015.34
2018-09-15T17:15:28.976Z,1015.39
2018-09-15T17:16:29.032Z,1015.38
2018-09-15T17:17:28.946Z,1015.41
2018-09-15T17:18:28.960Z,1015.42
2018-09-15T17:19:28.974Z,1015.40
2018-09-15T17:20:28.979Z,1015.38
2018-09-15T17:21:28.957Z,1015.40
2018-09-15T17:22:28.984Z,1015.42
2018-09-15T17:23:28.918Z,1015.43
2018-09-15T17:24:28.910Z,1015.36
2018-09-15T17:25:28.905Z,1015.40
2018-09-15T17:26:28.806Z,1015.39
2018-09-15T17:27:28.799Z,1015.39
2018-09-15T17:28:28.786Z,1015.43
2018-09-15T17:29:28.781Z,1015.37
2018-09-15T17:30:28.776Z,1015.37
2018-09-15T17:31:28.778Z,1015.37
2018-09-15T17:32:28.751Z,1015.35
2018-09-15T17:33:28.768Z,1015.36
2018-09-15T17:34:28.749Z,1015.41
2018-09-15T17:35:28.717Z,1015.36
2018-09-15T17:36:28.662Z,1015.39
2018-09-15T17:37:28.664Z,1015.39
2018-09-15T17:38:28.652Z,1015.41
2018-09-15T17:39:28.628Z,1015.42
2018-09-15T17:40:28.595Z,1015.41
2018-09-15T17:41:28.605Z,1015.41
2018-09-15T17:42:28.575Z,1015.37
2018-09-15T17:43:28.567Z,1015.41
2018-09-15T17:44:28.580Z,1015.43
2018-09-15T17:45:28.559Z,1015.42
2018-09-15T17:46:28.534Z,1015.48
2018-09-15T17:47:28.629Z,1015.46
2018-09-15T17:48:28.488Z,1015.47
2018-09-15T17:49:28.459Z,1015.46
2018-09-15T17:50:28.451Z,1015.47
2018-09-15T17:51:28.452Z,1015.47
2018-09-15T17:52:28.411Z,1015.49
2018-09-15T17:53:28.392Z,1015.48
2018-09-15T17:54:28.403Z,1015.48
2018-09-15T17:55:28.407Z,1015.48
2018-09-15T17:56:28.412Z,1015.51
2018-09-15T17:57:28.353Z,1015.54
2018-09-15T17:58:28.374Z,1015.51
2018-09-15T17:59:28.312Z,1015.57
2018-09-15T18:00:28.297Z,1015.57
2018-09-15T18:01:28.263Z,1015.59
2018-09-15T18:02:28.287Z,1015.59
2018-09-15T18:03:28.258Z,1015.60
2018-09-15T18:04:28.225Z,1015.62
2018-09-15T18:05:38.523Z,1015.62
2018-09-15T18:06:28.191Z,1015.61
2018-09-15T18:07:28.175Z,1015.60
2018-09-15T18:08:28.155Z,1015.64
2018-09-15T18:09:28.221Z,1015.66
2018-09-15T18:10:28.166Z,1015.69
2018-09-15T18:11:28.175Z,1015.70
2018-09-15T18:12:28.163Z,1015.70
2018-09-15T18:13:28.151Z,1015.71
2018-09-15T18:14:28.120Z,1015.74
2018-09-15T18:15:28.035Z,1015.79
2018-09-15T18:16:28.016Z,1015.81
2018-09-15T18:17:28.035Z,1015.82
2018-09-15T18:18:27.985Z,1015.81
2018-09-15T18:19:27.970Z,1015.86
2018-09-15T18:20:27.948Z,1015.83
2018-09-15T18:21:27.939Z,1015.82
2018-09-15T18:22:27.920Z,1015.81
2018-09-15T18:23:27.911Z,1015.79
2018-09-15T18:24:27.889Z,1015.81
2018-09-15T18:25:27.894Z,1015.79
2018-09-15T18:26:27.856Z,1015.84
2018-09-15T18:27:27.856Z,1015.85
2018-09-15T18:28:27.841Z,1015.86
2018-09-15T18:29:27.819Z,1015.84
2018-09-15T18:30:27.796Z,1015.82
2018-09-15T18:31:27.798Z,1015.81
2018-09-15T18:32:27.758Z,1015.84
2018-09-15T18:33:27.758Z,1015.83
2018-09-15T18:34:27.742Z,1015.83
2018-09-15T18:35:27.713Z,1015.86
2018-09-15T18:36:27.775Z,1015.89
2018-09-15T18:37:27.686Z,1015.89
2018-09-15T18:38:27.677Z,1015.90
2018-09-15T18:39:27.666Z,1015.90
2018-09-15T18:40:27.648Z,1015.96
2018-09-15T18:41:27.634Z,1015.98
2018-09-15T18:42:27.610Z,1015.96
2018-09-15T18:43:27.599Z,1015.97
2018-09-15T18:44:27.576Z,1015.97
2018-09-15T18:45:27.541Z,1015.94
2018-09-15T18:46:27.557Z,1015.97
2018-09-15T18:47:27.543Z,1016.00
2018-09-15T18:48:37.548Z,1016.00
2018-09-15T18:49:27.488Z,1015.99
2018-09-15T18:50:27.457Z,1016.00
2018-09-15T18:51:27.439Z,1016.01
2018-09-15T18:52:27.424Z,1016.03
2018-09-15T18:53:27.413Z,1016.04
2018-09-15T18:54:27.442Z,1016.02
2018-09-15T18:55:27.415Z,1016.05
2018-09-15T18:56:27.538Z,1016.03
2018-09-15T18:57:27.425Z,1016.02
2018-09-15T18:58:27.414Z,1016.04
2018-09-15T18:59:27.362Z,1016.05
2018-09-15T19:00:27.452Z,1016.07
2018-09-15T19:01:27.294Z,1016.08
2018-09-15T19:02:27.260Z,1016.07
2018-09-15T19:03:27.282Z,1016.10
2018-09-15T19:04:27.231Z,1016.13